sensor_id;sensor_type;location;lat;lon;timestamp;pressure;altitude;pressure_sealevel;temperature;humidity
6853;BME280;3465;42.144;24.722;2022-10-31T00:01:12;99742.63;;;15.34;nan
6853;BME280;3465;42.144;24.722;2022-10-31T00:03:37;99739.19;;;15.38;nan
6853;BME280;3465;42.144;24.722;2022-10-31T00:06:06;99731.44;;;15.36;nan
6853;BME280;3465;42.144;24.722;2022-10-31T00:08:31;99729.69;;;15.35;nan
6853;BME280;3465;42.144;24.722;2022-10-31T00:10:57;99716.75;;;15.29;nan
6853;BME280;3465;42.144;24.722;2022-10-31T00:13:25;99741.78;;;15.45;nan
6853;BME280;3465;42.144;24.722;2022-10-31T00:15:50;99730.56;;;15.46;nan
6853;BME280;3465;42.144;24.722;2022-10-31T00:18:16;99735.75;;;15.55;nan
6853;BME280;3465;42.144;24.722;2022-10-31T00:20:41;99731.41;;;15.53;nan
6853;BME280;3465;42.144;24.722;2022-10-31T00:23:07;99736.59;;;15.59;nan
6853;BME280;3465;42.144;24.722;2022-10-31T00:25:37;99721.94;;;15.50;nan
6853;BME280;3465;42.144;24.722;2022-10-31T00:28:05;99725.41;;;15.52;nan
6853;BME280;3465;42.144;24.722;2022-10-31T00:30:31;99740.00;;;15.62;nan
6853;BME280;3465;42.144;24.722;2022-10-31T00:32:56;99744.34;;;15.69;nan
6853;BME280;3465;42.144;24.722;2022-10-31T00:35:22;99743.44;;;15.70;nan
6853;BME280;3465;42.144;24.722;2022-10-31T00:37:47;99736.53;;;15.78;nan
6853;BME280;3465;42.144;24.722;2022-10-31T00:40:12;99716.72;;;15.64;nan
6853;BME280;3465;42.144;24.722;2022-10-31T00:42:41;99738.28;;;15.77;nan
6853;BME280;3465;42.144;24.722;2022-10-31T00:45:08;99747.72;;;15.88;nan
6853;BME280;3465;42.144;24.722;2022-10-31T00:47:34;99750.31;;;15.97;nan
6853;BME280;3465;42.144;24.722;2022-10-31T00:49:59;99750.25;;;16.08;nan
6853;BME280;3465;42.144;24.722;2022-10-31T00:52:25;99738.13;;;16.13;nan
6853;BME280;3465;42.144;24.722;2022-10-31T00:54:50;99723.47;;;16.13;nan
6853;BME280;3465;42.144;24.722;2022-10-31T00:57:15;99744.13;;;16.30;nan
6853;BME280;3465;42.144;24.722;2022-10-31T00:59:41;99753.59;;;16.37;nan
6853;BME280;3465;42.144;24.722;2022-10-31T01:02:06;99737.97;;;16.43;nan
6853;BME280;3465;42.144;24.722;2022-10-31T01:04:31;99730.22;;;16.41;nan
6853;BME280;3465;42.144;24.722;2022-10-31T01:06:57;99725.88;;;16.49;nan
6853;BME280;3465;42.144;24.722;2022-10-31T01:09:22;99737.06;;;16.60;nan
6853;BME280;3465;42.144;24.722;2022-10-31T01:11:48;99729.31;;;16.56;nan
6853;BME280;3465;42.144;24.722;2022-10-31T01:14:13;99731.91;;;16.54;nan
6853;BME280;3465;42.144;24.722;2022-10-31T01:16:39;99736.25;;;16.54;nan
6853;BME280;3465;42.144;24.722;2022-10-31T01:19:04;99722.44;;;16.43;nan
6853;BME280;3465;42.144;24.722;2022-10-31T01:21:29;99739.69;;;16.54;nan
6853;BME280;3465;42.144;24.722;2022-10-31T01:23:55;99735.41;;;16.52;nan
6853;BME280;3465;42.144;24.722;2022-10-31T01:26:24;99725.03;;;16.49;nan
6853;BME280;3465;42.144;24.722;2022-10-31T01:28:55;99731.06;;;16.54;nan
6853;BME280;3465;42.144;24.722;2022-10-31T01:31:23;99739.69;;;16.53;nan
6853;BME280;3465;42.144;24.722;2022-10-31T01:33:49;99726.78;;;16.48;nan
6853;BME280;3465;42.144;24.722;2022-10-31T01:36:34;99724.13;;;16.53;nan
6853;BME280;3465;42.144;24.722;2022-10-31T01:39:12;99693.97;;;16.46;nan
6853;BME280;3465;42.144;24.722;2022-10-31T01:41:40;99670.75;;;16.22;nan
6853;BME280;3465;42.144;24.722;2022-10-31T01:46:45;99699.94;;;16.51;nan
6853;BME280;3465;42.144;24.722;2022-10-31T01:49:16;99700.84;;;16.47;nan
6853;BME280;3465;42.144;24.722;2022-10-31T01:52:14;99712.00;;;16.61;nan
6853;BME280;3465;42.144;24.722;2022-10-31T01:54:54;99718.00;;;16.67;nan
6853;BME280;3465;42.144;24.722;2022-10-31T01:57:21;99725.72;;;16.78;nan
6853;BME280;3465;42.144;24.722;2022-10-31T01:59:49;99716.16;;;16.81;nan
6853;BME280;3465;42.144;24.722;2022-10-31T02:02:17;99724.78;;;16.86;nan
6853;BME280;3465;42.144;24.722;2022-10-31T02:04:44;99700.59;;;16.86;nan
6853;BME280;3465;42.144;24.722;2022-10-31T02:07:14;99703.97;;;16.94;nan
6853;BME280;3465;42.144;24.722;2022-10-31T02:09:41;99690.22;;;16.83;nan
6853;BME280;3465;42.144;24.722;2022-10-31T02:12:09;99691.09;;;16.80;nan
6853;BME280;3465;42.144;24.722;2022-10-31T02:14:36;99709.22;;;16.85;nan
6853;BME280;3465;42.144;24.722;2022-10-31T02:17:02;99702.28;;;16.88;nan
6853;BME280;3465;42.144;24.722;2022-10-31T02:22:16;99695.19;;;17.10;nan
6853;BME280;3465;42.144;24.722;2022-10-31T02:30:26;99708.09;;;17.19;nan
6853;BME280;3465;42.144;24.722;2022-10-31T02:38:28;99711.38;;;17.36;nan
6853;BME280;3465;42.144;24.722;2022-10-31T02:41:23;99712.28;;;17.32;nan
6853;BME280;3465;42.144;24.722;2022-10-31T02:49:34;99726.03;;;17.45;nan
6853;BME280;3465;42.144;24.722;2022-10-31T02:52:20;99726.91;;;17.45;nan
6853;BME280;3465;42.144;24.722;2022-10-31T02:54:46;99728.53;;;17.55;nan
6853;BME280;3465;42.144;24.722;2022-10-31T02:57:13;99740.53;;;17.67;nan
6853;BME280;3465;42.144;24.722;2022-10-31T02:59:46;99727.59;;;17.62;nan
6853;BME280;3465;42.144;24.722;2022-10-31T03:02:27;99731.91;;;17.66;nan
6853;BME280;3465;42.144;24.722;2022-10-31T03:08:11;99737.91;;;17.70;nan
6853;BME280;3465;42.144;24.722;2022-10-31T03:11:08;99734.38;;;17.77;nan
6853;BME280;3465;42.144;24.722;2022-10-31T03:13:50;99733.56;;;17.70;nan
6853;BME280;3465;42.144;24.722;2022-10-31T03:21:27;99742.38;;;17.57;nan
6853;BME280;3465;42.144;24.722;2022-10-31T03:23:55;99753.56;;;17.64;nan
6853;BME280;3465;42.144;24.722;2022-10-31T03:26:23;99759.69;;;17.58;nan
6853;BME280;3465;42.144;24.722;2022-10-31T03:29:00;99764.00;;;17.58;nan
6853;BME280;3465;42.144;24.722;2022-10-31T03:31:31;99762.28;;;17.58;nan
6853;BME280;3465;42.144;24.722;2022-10-31T03:33:59;99772.66;;;17.61;nan
6853;BME280;3465;42.144;24.722;2022-10-31T03:36:26;99751.13;;;17.47;nan
6853;BME280;3465;42.144;24.722;2022-10-31T03:38:53;99778.69;;;17.60;nan
6853;BME280;3465;42.144;24.722;2022-10-31T03:41:23;99762.25;;;17.61;nan
6853;BME280;3465;42.144;24.722;2022-10-31T03:43:59;99776.13;;;17.59;nan
6853;BME280;3465;42.144;24.722;2022-10-31T03:46:26;99777.91;;;17.51;nan
6853;BME280;3465;42.144;24.722;2022-10-31T03:48:52;99765.88;;;17.45;nan
6853;BME280;3465;42.144;24.722;2022-10-31T03:51:46;99783.91;;;17.57;nan
6853;BME280;3465;42.144;24.722;2022-10-31T03:54:24;99794.34;;;17.54;nan
6853;BME280;3465;42.144;24.722;2022-10-31T03:57:01;99795.25;;;17.52;nan
6853;BME280;3465;42.144;24.722;2022-10-31T03:59:43;99801.38;;;17.40;nan
6853;BME280;3465;42.144;24.722;2022-10-31T04:02:14;99789.31;;;17.30;nan
6853;BME280;3465;42.144;24.722;2022-10-31T04:04:44;99794.50;;;17.33;nan
6853;BME280;3465;42.144;24.722;2022-10-31T04:07:12;99785.03;;;17.26;nan
6853;BME280;3465;42.144;24.722;2022-10-31T04:09:41;99788.56;;;17.19;nan
6853;BME280;3465;42.144;24.722;2022-10-31T04:12:09;99786.88;;;17.12;nan
6853;BME280;3465;42.144;24.722;2022-10-31T04:14:39;99780.88;;;17.04;nan
6853;BME280;3465;42.144;24.722;2022-10-31T04:17:07;99799.97;;;16.97;nan
6853;BME280;3465;42.144;24.722;2022-10-31T04:19:34;99796.53;;;16.92;nan
6853;BME280;3465;42.144;24.722;2022-10-31T04:22:00;99801.75;;;16.89;nan
6853;BME280;3465;42.144;24.722;2022-10-31T04:24:25;99784.47;;;16.82;nan
6853;BME280;3465;42.144;24.722;2022-10-31T04:26:51;99804.38;;;16.81;nan
6853;BME280;3465;42.144;24.722;2022-10-31T04:29:16;99792.38;;;16.62;nan
6853;BME280;3465;42.144;24.722;2022-10-31T04:31:41;99813.94;;;16.72;nan
6853;BME280;3465;42.144;24.722;2022-10-31T04:34:07;99808.75;;;16.78;nan
6853;BME280;3465;42.144;24.722;2022-10-31T04:36:32;99813.88;;;16.84;nan
6853;BME280;3465;42.144;24.722;2022-10-31T04:38:58;99809.56;;;16.86;nan
6853;BME280;3465;42.144;24.722;2022-10-31T04:41:23;99808.72;;;16.82;nan
6853;BME280;3465;42.144;24.722;2022-10-31T04:43:49;99790.56;;;16.73;nan
6853;BME280;3465;42.144;24.722;2022-10-31T04:46:14;99818.22;;;16.82;nan
6853;BME280;3465;42.144;24.722;2022-10-31T04:48:40;99823.41;;;16.82;nan
6853;BME280;3465;42.144;24.722;2022-10-31T04:51:05;99835.50;;;16.83;nan
6853;BME280;3465;42.144;24.722;2022-10-31T04:53:30;99824.28;;;16.79;nan
6853;BME280;3465;42.144;24.722;2022-10-31T04:55:59;99831.19;;;16.82;nan
6853;BME280;3465;42.144;24.722;2022-10-31T04:58:28;99838.94;;;16.88;nan
6853;BME280;3465;42.144;24.722;2022-10-31T05:00:54;99843.22;;;16.96;nan
6853;BME280;3465;42.144;24.722;2022-10-31T05:03:20;99844.09;;;16.91;nan
6853;BME280;3465;42.144;24.722;2022-10-31T05:05:45;99854.47;;;16.97;nan
6853;BME280;3465;42.144;24.722;2022-10-31T05:08:11;99848.44;;;16.92;nan
6853;BME280;3465;42.144;24.722;2022-10-31T05:10:36;99835.50;;;16.83;nan
6853;BME280;3465;42.144;24.722;2022-10-31T05:13:03;99872.63;;;16.97;nan
6853;BME280;3465;42.144;24.722;2022-10-31T05:15:29;99840.72;;;16.78;nan
6853;BME280;3465;42.144;24.722;2022-10-31T05:17:55;99860.59;;;16.84;nan
6853;BME280;3465;42.144;24.722;2022-10-31T05:20:25;99858.81;;;16.92;nan
6853;BME280;3465;42.144;24.722;2022-10-31T05:22:55;99864.78;;;17.03;nan
6853;BME280;3465;42.144;24.722;2022-10-31T05:25:22;99849.25;;;17.01;nan
6853;BME280;3465;42.144;24.722;2022-10-31T05:27:50;99884.56;;;17.22;nan
6853;BME280;3465;42.144;24.722;2022-10-31T05:30:18;99875.06;;;17.23;nan
6853;BME280;3465;42.144;24.722;2022-10-31T05:32:46;99866.31;;;17.33;nan
6853;BME280;3465;42.144;24.722;2022-10-31T05:35:14;99865.50;;;17.31;nan
6853;BME280;3465;42.144;24.722;2022-10-31T05:37:41;99863.75;;;17.28;nan
6853;BME280;3465;42.144;24.722;2022-10-31T05:40:08;99877.59;;;17.30;nan
6853;BME280;3465;42.144;24.722;2022-10-31T05:42:34;99884.47;;;17.40;nan
6853;BME280;3465;42.144;24.722;2022-10-31T05:45:00;99885.31;;;17.48;nan
6853;BME280;3465;42.144;24.722;2022-10-31T05:47:25;99880.03;;;17.56;nan
6853;BME280;3465;42.144;24.722;2022-10-31T05:49:51;99899.94;;;17.60;nan
6853;BME280;3465;42.144;24.722;2022-10-31T05:52:16;99882.69;;;17.51;nan
6853;BME280;3465;42.144;24.722;2022-10-31T05:54:42;99887.88;;;17.51;nan
6853;BME280;3465;42.144;24.722;2022-10-31T05:57:07;99897.34;;;17.57;nan
6853;BME280;3465;42.144;24.722;2022-10-31T05:59:33;99890.41;;;17.57;nan
6853;BME280;3465;42.144;24.722;2022-10-31T06:01:58;99903.19;;;17.84;nan
6853;BME280;3465;42.144;24.722;2022-10-31T06:04:24;99899.69;;;17.88;nan
6853;BME280;3465;42.144;24.722;2022-10-31T06:06:49;99898.00;;;17.84;nan
6853;BME280;3465;42.144;24.722;2022-10-31T06:09:14;99921.31;;;17.93;nan
6853;BME280;3465;42.144;24.722;2022-10-31T06:11:43;99897.16;;;17.84;nan
6853;BME280;3465;42.144;24.722;2022-10-31T06:14:08;99899.59;;;17.97;nan
6853;BME280;3465;42.144;24.722;2022-10-31T06:16:33;99909.09;;;18.04;nan
6853;BME280;3465;42.144;24.722;2022-10-31T06:18:59;99915.91;;;18.13;nan
6853;BME280;3465;42.144;24.722;2022-10-31T06:21:24;99921.88;;;18.27;nan
6853;BME280;3465;42.144;24.722;2022-10-31T06:23:53;99920.06;;;18.33;nan
6853;BME280;3465;42.144;24.722;2022-10-31T06:26:18;99920.03;;;18.36;nan
6853;BME280;3465;42.144;24.722;2022-10-31T06:28:44;99919.88;;;18.55;nan
6853;BME280;3465;42.144;24.722;2022-10-31T06:31:09;99935.13;;;19.50;nan
6853;BME280;3465;42.144;24.722;2022-10-31T06:33:34;99930.94;;;20.90;nan
6853;BME280;3465;42.144;24.722;2022-10-31T06:36:06;99923.63;;;22.52;nan
6853;BME280;3465;42.144;24.722;2022-10-31T06:38:32;99950.09;;;24.17;nan
6853;BME280;3465;42.144;24.722;2022-10-31T06:40:57;99947.22;;;25.44;nan
6853;BME280;3465;42.144;24.722;2022-10-31T06:43:22;99965.66;;;26.70;nan
6853;BME280;3465;42.144;24.722;2022-10-31T06:45:48;99964.38;;;26.99;nan
6853;BME280;3465;42.144;24.722;2022-10-31T06:48:13;99977.13;;;28.20;nan
6853;BME280;3465;42.144;24.722;2022-10-31T06:50:39;99984.84;;;28.58;nan
6853;BME280;3465;42.144;24.722;2022-10-31T06:53:04;99975.28;;;29.38;nan
6853;BME280;3465;42.144;24.722;2022-10-31T06:55:30;99979.16;;;29.79;nan
6853;BME280;3465;42.144;24.722;2022-10-31T06:58:00;99987.88;;;29.81;nan
6853;BME280;3465;42.144;24.722;2022-10-31T07:00:27;99989.09;;;30.36;nan
6853;BME280;3465;42.144;24.722;2022-10-31T07:02:58;99996.72;;;30.56;nan
6853;BME280;3465;42.144;24.722;2022-10-31T07:05:24;100003.56;;;30.60;nan
6853;BME280;3465;42.144;24.722;2022-10-31T07:07:54;100002.34;;;30.96;nan
6853;BME280;3465;42.144;24.722;2022-10-31T07:10:20;99999.97;;;31.19;nan
6853;BME280;3465;42.144;24.722;2022-10-31T07:12:46;99994.47;;;31.08;nan
6853;BME280;3465;42.144;24.722;2022-10-31T07:15:11;99981.69;;;30.71;nan
6853;BME280;3465;42.144;24.722;2022-10-31T07:17:37;99992.38;;;31.13;nan
6853;BME280;3465;42.144;24.722;2022-10-31T07:20:02;100001.41;;;31.39;nan
6853;BME280;3465;42.144;24.722;2022-10-31T07:22:35;99998.34;;;31.99;nan
6853;BME280;3465;42.144;24.722;2022-10-31T07:25:01;99997.47;;;32.52;nan
6853;BME280;3465;42.144;24.722;2022-10-31T07:27:26;99981.78;;;32.08;nan
6853;BME280;3465;42.144;24.722;2022-10-31T07:29:51;100005.72;;;32.87;nan
6853;BME280;3465;42.144;24.722;2022-10-31T07:32:17;100001.56;;;33.33;nan
6853;BME280;3465;42.144;24.722;2022-10-31T07:34:42;100007.75;;;33.59;nan
6853;BME280;3465;42.144;24.722;2022-10-31T07:37:07;100000.41;;;32.87;nan
6853;BME280;3465;42.144;24.722;2022-10-31T07:39:33;99976.44;;;31.41;nan
6853;BME280;3465;42.144;24.722;2022-10-31T07:41:58;99993.66;;;29.57;nan
6853;BME280;3465;42.144;24.722;2022-10-31T07:44:24;99988.09;;;28.46;nan
6853;BME280;3465;42.144;24.722;2022-10-31T07:46:49;99972.44;;;27.15;nan
6853;BME280;3465;42.144;24.722;2022-10-31T07:49:14;99967.47;;;26.48;nan
6853;BME280;3465;42.144;24.722;2022-10-31T07:51:40;99976.63;;;26.20;nan
6853;BME280;3465;42.144;24.722;2022-10-31T07:54:05;99965.97;;;25.80;nan
6853;BME280;3465;42.144;24.722;2022-10-31T07:56:31;99936.28;;;25.55;nan
6853;BME280;3465;42.144;24.722;2022-10-31T07:58:56;99966.63;;;25.42;nan
6853;BME280;3465;42.144;24.722;2022-10-31T08:01:22;99960.06;;;25.52;nan
6853;BME280;3465;42.144;24.722;2022-10-31T08:03:47;99964.91;;;25.62;nan
6853;BME280;3465;42.144;24.722;2022-10-31T08:06:12;99967.97;;;25.73;nan
6853;BME280;3465;42.144;24.722;2022-10-31T08:08:38;99962.72;;;25.73;nan
6853;BME280;3465;42.144;24.722;2022-10-31T08:11:03;99968.28;;;25.87;nan
6853;BME280;3465;42.144;24.722;2022-10-31T08:13:29;99960.09;;;25.73;nan
6853;BME280;3465;42.144;24.722;2022-10-31T08:15:58;99964.84;;;26.48;nan
6853;BME280;3465;42.144;24.722;2022-10-31T08:18:29;99962.25;;;27.26;nan
6853;BME280;3465;42.144;24.722;2022-10-31T08:20:54;99950.00;;;28.16;nan
6853;BME280;3465;42.144;24.722;2022-10-31T08:23:20;99968.78;;;29.28;nan
6853;BME280;3465;42.144;24.722;2022-10-31T08:25:45;99968.13;;;30.32;nan
6853;BME280;3465;42.144;24.722;2022-10-31T08:28:13;99995.22;;;31.24;nan
6853;BME280;3465;42.144;24.722;2022-10-31T08:30:39;99983.31;;;32.13;nan
6853;BME280;3465;42.144;24.722;2022-10-31T08:33:16;99984.25;;;33.02;nan
6853;BME280;3465;42.144;24.722;2022-10-31T08:35:42;99996.38;;;33.80;nan
6853;BME280;3465;42.144;24.722;2022-10-31T08:38:09;100004.25;;;34.76;nan
6853;BME280;3465;42.144;24.722;2022-10-31T08:40:35;100011.13;;;35.02;nan
6853;BME280;3465;42.144;24.722;2022-10-31T08:43:15;100014.66;;;35.58;nan
6853;BME280;3465;42.144;24.722;2022-10-31T08:45:42;100012.44;;;35.74;nan
6853;BME280;3465;42.144;24.722;2022-10-31T08:48:12;100017.31;;;35.91;nan
6853;BME280;3465;42.144;24.722;2022-10-31T08:50:38;100009.16;;;36.35;nan
6853;BME280;3465;42.144;24.722;2022-10-31T08:53:09;100002.34;;;36.31;nan
6853;BME280;3465;42.144;24.722;2022-10-31T08:55:41;100013.81;;;36.74;nan
6853;BME280;3465;42.144;24.722;2022-10-31T08:58:10;100015.75;;;36.20;nan
6853;BME280;3465;42.144;24.722;2022-10-31T09:00:36;100005.19;;;35.54;nan
6853;BME280;3465;42.144;24.722;2022-10-31T09:03:04;100022.41;;;36.05;nan
6853;BME280;3465;42.144;24.722;2022-10-31T09:05:31;100008.22;;;35.38;nan
6853;BME280;3465;42.144;24.722;2022-10-31T09:08:06;100017.78;;;35.08;nan
6853;BME280;3465;42.144;24.722;2022-10-31T09:10:35;100007.56;;;33.49;nan
6853;BME280;3465;42.144;24.722;2022-10-31T09:13:07;99996.13;;;32.72;nan
6853;BME280;3465;42.144;24.722;2022-10-31T09:15:35;99974.28;;;31.88;nan
6853;BME280;3465;42.144;24.722;2022-10-31T09:18:01;99988.78;;;31.83;nan
6853;BME280;3465;42.144;24.722;2022-10-31T09:20:27;99996.75;;;32.24;nan
6853;BME280;3465;42.144;24.722;2022-10-31T09:23:00;100005.13;;;32.96;nan
6853;BME280;3465;42.144;24.722;2022-10-31T09:25:27;100005.09;;;33.21;nan
6853;BME280;3465;42.144;24.722;2022-10-31T09:27:56;100012.69;;;34.12;nan
6853;BME280;3465;42.144;24.722;2022-10-31T09:30:22;99990.19;;;34.27;nan
6853;BME280;3465;42.144;24.722;2022-10-31T09:32:48;99988.78;;;35.03;nan
6853;BME280;3465;42.144;24.722;2022-10-31T09:35:16;100010.06;;;35.49;nan
6853;BME280;3465;42.144;24.722;2022-10-31T09:37:42;99981.81;;;36.21;nan
6853;BME280;3465;42.144;24.722;2022-10-31T09:40:07;100012.91;;;36.64;nan
6853;BME280;3465;42.144;24.722;2022-10-31T09:43:00;99989.31;;;36.58;nan
6853;BME280;3465;42.144;24.722;2022-10-31T09:53:39;100013.31;;;38.01;nan
6853;BME280;3465;42.144;24.722;2022-10-31T09:56:18;100005.59;;;38.17;nan
6853;BME280;3465;42.144;24.722;2022-10-31T09:58:49;99953.84;;;38.43;nan
6853;BME280;3465;42.144;24.722;2022-10-31T10:04:01;100014.91;;;38.22;nan
6853;BME280;3465;42.144;24.722;2022-10-31T10:06:29;100002.56;;;36.91;nan
6853;BME280;3465;42.144;24.722;2022-10-31T10:08:58;99991.56;;;36.74;nan
6853;BME280;3465;42.144;24.722;2022-10-31T10:17:11;99988.53;;;37.69;nan
6853;BME280;3465;42.144;24.722;2022-10-31T10:30:41;99982.53;;;38.33;nan
6853;BME280;3465;42.144;24.722;2022-10-31T10:33:14;99972.91;;;37.13;nan
6853;BME280;3465;42.144;24.722;2022-10-31T10:35:46;99978.28;;;37.93;nan
6853;BME280;3465;42.144;24.722;2022-10-31T10:38:23;99954.81;;;37.76;nan
6853;BME280;3465;42.144;24.722;2022-10-31T10:40:52;99954.97;;;37.35;nan
6853;BME280;3465;42.144;24.722;2022-10-31T10:43:28;99964.97;;;37.33;nan
6853;BME280;3465;42.144;24.722;2022-10-31T10:59:45;99932.41;;;36.56;nan
6853;BME280;3465;42.144;24.722;2022-10-31T11:02:23;99942.66;;;36.51;nan
6853;BME280;3465;42.144;24.722;2022-10-31T11:04:52;99950.72;;;35.66;nan
6853;BME280;3465;42.144;24.722;2022-10-31T11:07:19;99943.03;;;36.15;nan
6853;BME280;3465;42.144;24.722;2022-10-31T11:09:44;99918.84;;;35.85;nan
6853;BME280;3465;42.144;24.722;2022-10-31T11:12:22;99927.75;;;35.63;nan
6853;BME280;3465;42.144;24.722;2022-10-31T11:14:56;99932.97;;;35.87;nan
6853;BME280;3465;42.144;24.722;2022-10-31T11:20:24;99913.94;;;34.81;nan
6853;BME280;3465;42.144;24.722;2022-10-31T11:23:00;99930.34;;;33.60;nan
6853;BME280;3465;42.144;24.722;2022-10-31T11:25:27;99910.00;;;32.73;nan
6853;BME280;3465;42.144;24.722;2022-10-31T11:28:00;99910.78;;;32.11;nan
6853;BME280;3465;42.144;24.722;2022-10-31T11:30:25;99905.88;;;31.51;nan
6853;BME280;3465;42.144;24.722;2022-10-31T11:32:51;99897.63;;;31.42;nan
6853;BME280;3465;42.144;24.722;2022-10-31T11:35:19;99902.13;;;31.94;nan
6853;BME280;3465;42.144;24.722;2022-10-31T11:37:46;99878.81;;;31.85;nan
6853;BME280;3465;42.144;24.722;2022-10-31T11:40:31;99865.47;;;31.46;nan
6853;BME280;3465;42.144;24.722;2022-10-31T11:42:57;99884.31;;;31.01;nan
6853;BME280;3465;42.144;24.722;2022-10-31T11:45:31;99888.69;;;30.88;nan
6853;BME280;3465;42.144;24.722;2022-10-31T11:47:58;99877.13;;;30.89;nan
6853;BME280;3465;42.144;24.722;2022-10-31T11:52:58;99867.41;;;30.32;nan
6853;BME280;3465;42.144;24.722;2022-10-31T11:55:31;99876.97;;;30.05;nan
6853;BME280;3465;42.144;24.722;2022-10-31T11:57:57;99870.72;;;29.76;nan
6853;BME280;3465;42.144;24.722;2022-10-31T12:00:29;99860.78;;;29.66;nan
6853;BME280;3465;42.144;24.722;2022-10-31T12:08:40;99875.88;;;29.93;nan
6853;BME280;3465;42.144;24.722;2022-10-31T12:11:11;99873.13;;;29.81;nan
6853;BME280;3465;42.144;24.722;2022-10-31T12:23:01;99874.06;;;29.80;nan
6853;BME280;3465;42.144;24.722;2022-10-31T12:30:14;99868.63;;;29.67;nan
6853;BME280;3465;42.144;24.722;2022-10-31T12:35:40;99862.66;;;29.32;nan
6853;BME280;3465;42.144;24.722;2022-10-31T12:49:51;99860.66;;;28.40;nan
6853;BME280;3465;42.144;24.722;2022-10-31T12:52:19;99849.66;;;28.32;nan
6853;BME280;3465;42.144;24.722;2022-10-31T12:55:16;99861.53;;;28.40;nan
6853;BME280;3465;42.144;24.722;2022-10-31T12:57:58;99831.41;;;28.27;nan
6853;BME280;3465;42.144;24.722;2022-10-31T13:00:27;99854.59;;;28.38;nan
6853;BME280;3465;42.144;24.722;2022-10-31T13:03:17;99857.16;;;28.39;nan
6853;BME280;3465;42.144;24.722;2022-10-31T13:05:46;99842.00;;;28.10;nan
6853;BME280;3465;42.144;24.722;2022-10-31T13:08:19;99837.25;;;27.99;nan
6853;BME280;3465;42.144;24.722;2022-10-31T13:13:22;99851.63;;;27.94;nan
6853;BME280;3465;42.144;24.722;2022-10-31T13:15:59;99828.13;;;27.54;nan
6853;BME280;3465;42.144;24.722;2022-10-31T13:18:38;99844.75;;;27.73;nan
6853;BME280;3465;42.144;24.722;2022-10-31T13:21:09;99859.56;;;27.94;nan
6853;BME280;3465;42.144;24.722;2022-10-31T13:23:39;99858.13;;;28.04;nan
6853;BME280;3465;42.144;24.722;2022-10-31T13:31:25;99837.16;;;28.18;nan
6853;BME280;3465;42.144;24.722;2022-10-31T13:34:04;99849.19;;;28.24;nan
6853;BME280;3465;42.144;24.722;2022-10-31T13:36:39;99843.03;;;28.23;nan
6853;BME280;3465;42.144;24.722;2022-10-31T13:39:25;99838.91;;;28.02;nan
6853;BME280;3465;42.144;24.722;2022-10-31T13:44:38;99824.78;;;27.67;nan
6853;BME280;3465;42.144;24.722;2022-10-31T13:49:48;99822.56;;;27.41;nan
6853;BME280;3465;42.144;24.722;2022-10-31T13:52:16;99837.09;;;27.50;nan
6853;BME280;3465;42.144;24.722;2022-10-31T13:54:44;99841.53;;;27.49;nan
6853;BME280;3465;42.144;24.722;2022-10-31T13:57:21;99836.63;;;27.42;nan
6853;BME280;3465;42.144;24.722;2022-10-31T14:00:02;99830.94;;;27.32;nan
6853;BME280;3465;42.144;24.722;2022-10-31T14:02:34;99825.16;;;27.24;nan
6853;BME280;3465;42.144;24.722;2022-10-31T14:05:21;99839.00;;;27.29;nan
6853;BME280;3465;42.144;24.722;2022-10-31T14:07:48;99824.75;;;27.15;nan
6853;BME280;3465;42.144;24.722;2022-10-31T14:10:29;99832.50;;;27.18;nan
6853;BME280;3465;42.144;24.722;2022-10-31T14:15:43;99836.56;;;27.06;nan
6853;BME280;3465;42.144;24.722;2022-10-31T14:18:24;99848.28;;;27.01;nan
6853;BME280;3465;42.144;24.722;2022-10-31T14:20:53;99828.66;;;26.69;nan
6853;BME280;3465;42.144;24.722;2022-10-31T14:25:53;99832.66;;;26.39;nan
6853;BME280;3465;42.144;24.722;2022-10-31T14:28:21;99852.56;;;26.26;nan
6853;BME280;3465;42.144;24.722;2022-10-31T14:30:57;99836.16;;;26.19;nan
6853;BME280;3465;42.144;24.722;2022-10-31T14:33:26;99855.13;;;26.27;nan
6853;BME280;3465;42.144;24.722;2022-10-31T14:36:00;99857.00;;;26.25;nan
6853;BME280;3465;42.144;24.722;2022-10-31T14:41:50;99854.81;;;26.15;nan
6853;BME280;3465;42.144;24.722;2022-10-31T14:44:29;99858.31;;;26.15;nan
6853;BME280;3465;42.144;24.722;2022-10-31T14:52:29;99859.59;;;26.05;nan
6853;BME280;3465;42.144;24.722;2022-10-31T14:54:59;99855.28;;;26.04;nan
6853;BME280;3465;42.144;24.722;2022-10-31T14:57:29;99836.59;;;25.89;nan
6853;BME280;3465;42.144;24.722;2022-10-31T15:00:01;99840.56;;;25.79;nan
6853;BME280;3465;42.144;24.722;2022-10-31T15:02:41;99858.91;;;25.80;nan
6853;BME280;3465;42.144;24.722;2022-10-31T15:05:12;99846.25;;;25.68;nan
6853;BME280;3465;42.144;24.722;2022-10-31T15:07:51;99852.31;;;25.70;nan
6853;BME280;3465;42.144;24.722;2022-10-31T15:10:23;99866.56;;;25.65;nan
6853;BME280;3465;42.144;24.722;2022-10-31T15:12:50;99848.19;;;25.43;nan
6853;BME280;3465;42.144;24.722;2022-10-31T15:17:48;99860.59;;;25.40;nan
6853;BME280;3465;42.144;24.722;2022-10-31T15:20:21;99865.25;;;25.31;nan
6853;BME280;3465;42.144;24.722;2022-10-31T15:22:48;99857.91;;;24.96;nan
6853;BME280;3465;42.144;24.722;2022-10-31T15:25:19;99869.16;;;25.00;nan
6853;BME280;3465;42.144;24.722;2022-10-31T15:27:47;99864.09;;;24.94;nan
6853;BME280;3465;42.144;24.722;2022-10-31T15:30:18;99872.69;;;24.99;nan
6853;BME280;3465;42.144;24.722;2022-10-31T15:32:44;99867.53;;;24.96;nan
6853;BME280;3465;42.144;24.722;2022-10-31T15:35:14;99865.84;;;24.95;nan
6853;BME280;3465;42.144;24.722;2022-10-31T15:37:43;99864.97;;;24.94;nan
6853;BME280;3465;42.144;24.722;2022-10-31T15:40:15;99858.91;;;24.92;nan
6853;BME280;3465;42.144;24.722;2022-10-31T15:42:41;99883.25;;;24.97;nan
6853;BME280;3465;42.144;24.722;2022-10-31T15:47:36;99879.03;;;24.93;nan
6853;BME280;3465;42.144;24.722;2022-10-31T15:50:05;99863.72;;;24.81;nan
6853;BME280;3465;42.144;24.722;2022-10-31T15:52:46;99868.28;;;24.76;nan
6853;BME280;3465;42.144;24.722;2022-10-31T15:55:21;99888.19;;;24.83;nan
6853;BME280;3465;42.144;24.722;2022-10-31T15:57:51;99862.47;;;24.68;nan
6853;BME280;3465;42.144;24.722;2022-10-31T16:05:47;99889.75;;;24.64;nan
6853;BME280;3465;42.144;24.722;2022-10-31T16:10:55;99908.25;;;24.61;nan
6853;BME280;3465;42.144;24.722;2022-10-31T16:13:29;99882.69;;;24.42;nan
6853;BME280;3465;42.144;24.722;2022-10-31T16:16:01;99912.34;;;24.45;nan